Time;durP1;ratioP1;P1;durP2;ratioP2;P2;SDS_P1;SDS_P2;PMS_P1;PMS_P2;Temp;Humidity;BMP_temperature;BMP_pressure;BME280_temperature;BME280_humidity;BME280_pressure;Samples;Min_cycle;Max_cycle;Signal;HPM_P1;HPM_P2
2023/06/26 00:00:05;;;;;;;16.27;9.13;;;15.50;23.80;;;;;;5014316;28;46393;-73
2023/06/26 00:02:32;;;;;;;14.53;9.00;;;15.50;24.70;;;;;;5015235;28;46368;-73
2023/06/26 00:04:58;;;;;;;14.07;9.00;;;15.50;23.80;;;;;;5015226;28;47096;-73
2023/06/26 00:07:24;;;;;;;17.47;10.60;;;15.60;23.90;;;;;;5009730;28;46690;-73
2023/06/26 00:09:49;;;;;;;13.37;9.27;;;15.50;23.90;;;;;;5017309;28;46431;-75
2023/06/26 00:12:15;;;;;;;15.60;9.23;;;15.50;24.10;;;;;;5014457;28;46674;-71
2023/06/26 00:14:40;;;;;;;14.70;8.83;;;15.40;24.20;;;;;;5014714;28;46266;-74
2023/06/26 00:17:06;;;;;;;14.63;9.17;;;15.30;24.40;;;;;;5011222;28;46697;-74
2023/06/26 00:19:33;;;;;;;16.60;9.63;;;15.20;24.70;;;;;;5017702;28;46433;-74
2023/06/26 00:21:58;;;;;;;17.50;10.37;;;15.10;24.80;;;;;;5010273;28;46617;-74
2023/06/26 00:24:24;;;;;;;16.33;9.60;;;15.00;25.00;;;;;;5015160;28;47296;-75
2023/06/26 00:26:49;;;;;;;17.63;10.17;;;15.00;25.10;;;;;;5011095;28;46462;-73
2023/06/26 00:29:15;;;;;;;17.27;9.40;;;14.90;25.30;;;;;;5015789;28;46491;-75
2023/06/26 00:31:41;;;;;;;16.60;9.80;;;14.90;25.50;;;;;;5012605;28;46468;-72
2023/06/26 00:34:07;;;;;;;15.30;9.37;;;14.90;25.50;;;;;;5011035;28;46534;-73
2023/06/26 00:36:32;;;;;;;18.80;9.40;;;14.80;25.60;;;;;;5014712;28;46578;-74
2023/06/26 00:38:59;;;;;;;15.10;10.00;;;14.80;25.70;;;;;;5014100;28;46592;-73
2023/06/26 00:41:24;;;;;;;15.87;9.77;;;14.80;25.70;;;;;;5009306;28;46476;-73
2023/06/26 00:43:50;;;;;;;16.40;9.77;;;14.80;25.70;;;;;;5012202;28;46922;-73
2023/06/26 00:46:16;;;;;;;16.13;10.07;;;14.80;25.60;;;;;;5013063;28;46438;-72
2023/06/26 00:48:44;;;;;;;13.17;8.50;;;14.80;25.60;;;;;;5017413;28;46682;-74
2023/06/26 00:51:10;;;;;;;21.30;10.27;;;14.80;25.80;;;;;;5012765;28;46686;-74
2023/06/26 00:53:36;;;;;;;14.73;9.43;;;14.70;25.90;;;;;;5014513;28;46397;-74
2023/06/26 00:56:02;;;;;;;17.00;9.37;;;14.60;26.10;;;;;;5016136;28;46548;-74
2023/06/26 00:58:28;;;;;;;15.60;9.30;;;14.60;26.20;;;;;;5011853;28;46406;-75
2023/06/26 01:00:54;;;;;;;13.60;8.50;;;14.60;26.50;;;;;;5010250;28;46531;-74
2023/06/26 01:03:21;;;;;;;14.83;9.30;;;14.50;26.40;;;;;;5019839;28;46417;-73
2023/06/26 01:05:49;;;;;;;13.33;8.90;;;14.60;26.50;;;;;;5013222;28;46526;-75
2023/06/26 01:08:15;;;;;;;14.90;9.10;;;14.50;26.40;;;;;;5018071;28;46475;-74
2023/06/26 01:10:41;;;;;;;21.73;8.60;;;14.50;26.40;;;;;;5021524;28;46440;-72
2023/06/26 01:13:08;;;;;;;18.20;9.67;;;14.50;26.50;;;;;;5014409;28;47319;-75
2023/06/26 01:15:34;;;;;;;17.63;8.70;;;14.40;26.50;;;;;;5019821;28;46360;-74
2023/06/26 01:18:03;;;;;;;16.03;10.47;;;14.40;26.60;;;;;;5018863;28;46433;-74
2023/06/26 01:20:31;;;;;;;19.83;9.80;;;14.50;26.60;;;;;;5017555;28;46613;-74
2023/06/26 01:23:26;;;;;;;13.67;9.13;;;14.40;26.60;;;;;;5013610;28;46747;-74
2023/06/26 01:26:06;;;;;;;15.43;9.80;;;14.50;26.90;;;;;;5021417;28;46753;-75
2023/06/26 01:28:34;;;;;;;15.63;9.67;;;14.50;26.50;;;;;;5018863;28;46423;-74
2023/06/26 01:31:00;;;;;;;14.40;9.10;;;14.50;26.50;;;;;;5013075;28;46721;-74
2023/06/26 01:33:27;;;;;;;19.47;9.60;;;14.50;26.60;;;;;;5020746;28;46837;-74
2023/06/26 01:35:53;;;;;;;14.90;9.30;;;14.40;26.60;;;;;;5019616;28;46405;-74
2023/06/26 01:38:20;;;;;;;15.27;8.97;;;14.40;26.60;;;;;;5018507;28;46674;-73
2023/06/26 01:40:46;;;;;;;17.27;9.50;;;14.40;26.80;;;;;;5013052;28;45934;-74
2023/06/26 01:43:27;;;;;;;16.23;9.60;;;14.40;26.80;;;;;;5016368;28;47898;-74
2023/06/26 01:45:58;;;;;;;13.10;8.60;;;14.40;27.20;;;;;;5014152;28;46337;-76
2023/06/26 01:48:30;;;;;;;14.13;8.23;;;14.30;26.90;;;;;;5014491;28;46743;-74
2023/06/26 01:50:59;;;;;;;18.60;10.47;;;14.30;26.90;;;;;;5007227;28;46675;-74
2023/06/26 01:53:29;;;;;;;15.80;9.97;;;14.40;27.00;;;;;;5020641;28;48119;-74
2023/06/26 01:56:08;;;;;;;16.17;10.60;;;14.40;26.80;;;;;;5015754;28;46612;-73
2023/06/26 01:58:35;;;;;;;15.60;10.27;;;14.50;27.10;;;;;;5016642;28;46543;-74
2023/06/26 02:01:00;;;;;;;20.10;10.03;;;14.50;26.90;;;;;;5020980;28;46725;-74
2023/06/26 02:03:26;;;;;;;15.53;9.47;;;14.50;26.90;;;;;;5019432;28;46475;-74
2023/06/26 02:05:52;;;;;;;17.27;10.47;;;14.50;27.00;;;;;;5013907;28;46653;-74
2023/06/26 02:08:18;;;;;;;15.73;10.43;;;14.50;27.10;;;;;;5012742;28;46431;-74
2023/06/26 02:10:43;;;;;;;16.97;9.30;;;14.50;27.30;;;;;;5019544;28;46349;-74
2023/06/26 02:13:09;;;;;;;16.23;8.87;;;14.40;27.30;;;;;;5014819;28;46944;-74
2023/06/26 02:15:34;;;;;;;15.17;9.37;;;14.40;27.40;;;;;;5015880;28;45825;-73
2023/06/26 02:18:00;;;;;;;14.27;8.80;;;14.40;27.40;;;;;;5015740;28;46603;-74
2023/06/26 02:20:25;;;;;;;16.13;10.27;;;14.40;27.50;;;;;;5019367;28;46383;-73
2023/06/26 02:22:51;;;;;;;21.00;10.60;;;14.40;27.40;;;;;;5017905;28;48065;-74
2023/06/26 02:25:18;;;;;;;21.10;10.50;;;14.40;27.50;;;;;;5018430;28;46524;-74
2023/06/26 02:27:43;;;;;;;16.43;9.33;;;14.40;27.50;;;;;;5019415;28;46510;-72
2023/06/26 02:30:09;;;;;;;14.90;9.77;;;14.40;27.70;;;;;;5016981;28;46610;-74
2023/06/26 02:32:35;;;;;;;16.03;10.07;;;14.30;27.50;;;;;;5015019;28;47303;-75
2023/06/26 02:35:01;;;;;;;16.17;9.80;;;14.30;27.70;;;;;;5016257;28;46393;-74
2023/06/26 02:37:27;;;;;;;19.17;10.87;;;14.20;27.90;;;;;;5021613;28;46303;-73
2023/06/26 02:39:52;;;;;;;14.77;9.53;;;14.10;28.10;;;;;;5016789;28;46372;-74
2023/06/26 02:42:18;;;;;;;14.50;9.00;;;14.10;28.40;;;;;;5016695;28;46511;-74
2023/06/26 02:44:43;;;;;;;18.33;10.83;;;14.00;28.30;;;;;;5015578;28;46378;-73
2023/06/26 02:47:09;;;;;;;17.17;9.90;;;14.00;28.30;;;;;;5017235;28;46422;-74
2023/06/26 02:49:35;;;;;;;19.23;10.97;;;14.10;28.30;;;;;;5020416;28;46441;-74
2023/06/26 02:52:00;;;;;;;17.87;10.97;;;14.00;28.30;;;;;;5009066;28;46402;-74
2023/06/26 02:54:26;;;;;;;16.83;9.40;;;14.00;28.60;;;;;;5018683;28;45752;-73
2023/06/26 02:56:52;;;;;;;17.70;10.43;;;14.00;28.70;;;;;;5013805;28;46696;-74
2023/06/26 02:59:18;;;;;;;15.70;9.90;;;14.00;28.60;;;;;;5013707;28;46466;-74
2023/06/26 03:01:43;;;;;;;17.50;10.57;;;14.10;28.60;;;;;;5012244;28;47138;-74
2023/06/26 03:04:10;;;;;;;16.17;10.43;;;14.10;28.60;;;;;;5019857;28;46712;-74
2023/06/26 03:06:36;;;;;;;17.50;10.47;;;14.10;28.60;;;;;;5016080;28;46632;-71
2023/06/26 03:09:02;;;;;;;20.73;10.10;;;14.00;28.80;;;;;;5020565;28;46488;-74
2023/06/26 03:11:28;;;;;;;17.00;10.60;;;14.10;28.90;;;;;;5013360;28;48324;-74
2023/06/26 03:13:53;;;;;;;15.60;9.77;;;14.10;29.00;;;;;;5019975;28;46696;-74
2023/06/26 03:16:19;;;;;;;15.93;9.87;;;14.00;28.90;;;;;;5016506;28;46682;-74
2023/06/26 03:18:45;;;;;;;20.23;10.83;;;14.00;28.90;;;;;;5016257;28;45937;-74
2023/06/26 03:21:10;;;;;;;16.40;10.27;;;14.10;29.00;;;;;;5016340;28;46246;-74
2023/06/26 03:23:36;;;;;;;14.43;10.30;;;14.00;28.90;;;;;;5018763;28;46101;-74
2023/06/26 03:26:01;;;;;;;20.20;10.00;;;14.00;28.90;;;;;;5016147;28;46804;-74
2023/06/26 03:28:27;;;;;;;15.40;10.33;;;14.10;29.00;;;;;;5012281;28;46654;-74
2023/06/26 03:30:53;;;;;;;16.30;9.70;;;14.10;29.00;;;;;;5017773;28;47329;-74
2023/06/26 03:33:18;;;;;;;24.90;10.47;;;14.20;29.10;;;;;;5019065;28;46456;-74
2023/06/26 03:35:44;;;;;;;17.20;10.00;;;14.30;28.90;;;;;;5017081;28;46468;-74
2023/06/26 03:38:09;;;;;;;21.50;10.13;;;14.30;28.70;;;;;;5009074;28;46751;-74
2023/06/26 03:40:35;;;;;;;18.50;9.80;;;14.40;28.60;;;;;;5020174;28;46076;-74
2023/06/26 03:43:01;;;;;;;18.30;9.80;;;14.40;28.70;;;;;;5017047;28;46423;-75
2023/06/26 03:45:26;;;;;;;20.97;10.20;;;14.50;28.50;;;;;;5016811;28;46442;-74
2023/06/26 03:47:52;;;;;;;16.63;10.13;;;14.60;28.40;;;;;;5012269;28;46246;-74
2023/06/26 03:50:18;;;;;;;14.33;9.03;;;14.70;28.00;;;;;;5013760;28;46397;-74
2023/06/26 03:52:44;;;;;;;14.90;9.50;;;14.90;27.80;;;;;;5018071;28;46336;-74
2023/06/26 03:55:09;;;;;;;20.13;10.60;;;15.00;27.70;;;;;;5008938;28;46734;-72
2023/06/26 03:57:35;;;;;;;16.43;10.17;;;15.10;27.50;;;;;;5014760;28;46642;-74
2023/06/26 04:00:01;;;;;;;13.77;8.93;;;15.20;27.50;;;;;;5017131;28;46468;-74
2023/06/26 04:02:27;;;;;;;32.77;10.83;;;15.30;27.40;;;;;;5018084;28;46464;-74
2023/06/26 04:04:52;;;;;;;20.40;10.77;;;15.30;27.30;;;;;;5012696;28;45971;-73
2023/06/26 04:07:19;;;;;;;16.30;9.73;;;15.40;27.20;;;;;;5016117;28;46646;-73
2023/06/26 04:09:44;;;;;;;15.63;10.20;;;15.50;27.10;;;;;;5016608;28;47010;-73
2023/06/26 04:12:10;;;;;;;17.80;11.10;;;15.60;27.00;;;;;;5011462;28;46399;-73
2023/06/26 04:14:36;;;;;;;15.00;10.17;;;15.60;27.00;;;;;;5014872;28;46747;-73
2023/06/26 04:17:03;;;;;;;16.17;10.60;;;15.70;26.90;;;;;;5017698;28;46610;-74
2023/06/26 04:19:31;;;;;;;17.87;10.23;;;15.80;27.30;;;;;;5018141;28;47070;-73
2023/06/26 04:21:57;;;;;;;16.43;10.30;;;15.90;26.60;;;;;;5019532;28;46357;-73
2023/06/26 04:24:22;;;;;;;16.53;9.13;;;16.00;26.20;;;;;;5012421;28;46500;-73
2023/06/26 04:26:48;;;;;;;15.20;9.70;;;16.20;26.10;;;;;;5017646;28;46817;-73
2023/06/26 04:29:14;;;;;;;16.00;10.63;;;16.40;25.90;;;;;;5013068;28;46663;-75
2023/06/26 04:31:40;;;;;;;13.80;9.47;;;16.50;25.60;;;;;;5014173;28;46482;-74
2023/06/26 04:34:06;;;;;;;16.60;9.70;;;16.70;25.40;;;;;;5015132;28;46439;-73
2023/06/26 04:36:33;;;;;;;16.67;10.23;;;16.90;25.20;;;;;;5013529;28;45977;-74
2023/06/26 04:38:59;;;;;;;13.20;9.30;;;17.10;24.90;;;;;;5018087;28;46596;-73
2023/06/26 04:41:25;;;;;;;15.47;9.93;;;17.20;24.60;;;;;;5010730;28;46664;-74
2023/06/26 04:43:50;;;;;;;16.70;9.37;;;17.50;24.30;;;;;;5016678;28;46449;-73
2023/06/26 04:46:16;;;;;;;16.73;9.90;;;18.10;23.50;;;;;;5018662;28;46423;-73
2023/06/26 04:48:44;;;;;;;13.17;8.70;;;19.80;22.30;;;;;;5013932;28;47236;-71
2023/06/26 04:51:10;;;;;;;18.53;9.87;;;21.60;19.30;;;;;;5003906;28;46500;-73
2023/06/26 04:53:37;;;;;;;15.00;8.67;;;23.20;16.30;;;;;;5013283;28;45813;-74
2023/06/26 04:56:03;;;;;;;16.07;8.17;;;24.40;14.30;;;;;;5014432;28;46567;-73
2023/06/26 04:58:28;;;;;;;18.30;9.50;;;25.40;12.20;;;;;;5014110;28;46413;-66
2023/06/26 05:00:54;;;;;;;15.77;8.40;;;26.50;10.10;;;;;;5007940;28;46630;-73
2023/06/26 05:03:20;;;;;;;11.90;8.13;;;27.40;8.40;;;;;;5015859;28;46477;-73
2023/06/26 05:05:46;;;;;;;16.50;9.30;;;28.20;6.70;;;;;;5015513;28;46944;-74
2023/06/26 05:08:22;;;;;;;13.30;8.23;;;28.80;5.50;;;;;;5008479;28;46430;-73
2023/06/26 05:10:48;;;;;;;15.40;9.00;;;29.40;3.80;;;;;;5007733;28;46711;-73
2023/06/26 05:13:19;;;;;;;13.53;8.53;;;29.90;3.30;;;;;;5014236;28;46618;-72
2023/06/26 05:15:45;;;;;;;14.00;9.07;;;30.20;2.50;;;;;;5013846;28;46116;-73
2023/06/26 05:18:11;;;;;;;14.30;8.67;;;30.80;1.30;;;;;;5008739;28;47365;-72
2023/06/26 05:20:37;;;;;;;11.23;7.70;;;31.30;1.00;;;;;;5014258;28;46457;-73
2023/06/26 05:23:03;;;;;;;10.33;8.03;;;31.60;1.00;;;;;;5015284;28;46516;-74
2023/06/26 05:25:30;;;;;;;10.67;7.53;;;32.00;1.00;;;;;;5008256;28;46617;-73
2023/06/26 05:27:59;;;;;;;11.93;8.53;;;32.30;1.00;;;;;;5014153;28;47344;-72
2023/06/26 05:30:26;;;;;;;17.50;8.57;;;32.40;1.00;;;;;;5015945;28;46412;-71
2023/06/26 05:32:53;;;;;;;11.23;7.50;;;32.70;1.00;;;;;;5022186;28;46407;-72
2023/06/26 05:35:20;;;;;;;11.30;7.33;;;33.00;1.00;;;;;;5004705;28;46460;-73
2023/06/26 05:37:49;;;;;;;10.57;6.93;;;33.40;1.00;;;;;;5014797;28;47362;-72
2023/06/26 05:40:18;;;;;;;10.93;7.10;;;33.60;1.00;;;;;;5013620;28;46537;-75
2023/06/26 05:42:44;;;;;;;10.03;7.30;;;34.00;1.00;;;;;;5015839;28;46445;-72
2023/06/26 05:45:10;;;;;;;9.30;7.20;;;34.20;1.00;;;;;;5006767;28;46441;-73
2023/06/26 05:47:37;;;;;;;9.70;7.30;;;34.30;1.00;;;;;;5013238;28;46811;-73
2023/06/26 05:50:03;;;;;;;9.37;6.60;;;34.50;1.00;;;;;;5016859;28;46524;-72
2023/06/26 05:52:29;;;;;;;8.57;6.57;;;34.50;1.00;;;;;;5013541;28;45884;-74
2023/06/26 05:54:58;;;;;;;11.20;6.50;;;34.60;1.00;;;;;;5019319;28;46542;-72
2023/06/26 05:57:24;;;;;;;9.20;6.47;;;33.80;1.00;;;;;;5016742;28;46467;-73
2023/06/26 05:59:50;;;;;;;11.10;6.40;;;32.00;1.00;;;;;;5018906;28;45923;-72
2023/06/26 06:02:16;;;;;;;10.03;6.97;;;30.60;1.00;;;;;;5013717;28;46511;-72
2023/06/26 06:04:42;;;;;;;11.47;7.67;;;29.70;1.00;;;;;;5015310;28;46412;-72
2023/06/26 06:07:07;;;;;;;14.30;7.23;;;28.90;1.00;;;;;;5019168;28;46396;-73
2023/06/26 06:09:33;;;;;;;9.60;6.93;;;28.30;1.30;;;;;;5021010;23;46828;-66
2023/06/26 06:11:59;;;;;;;15.40;7.73;;;27.90;1.70;;;;;;5001000;28;46423;-67
2023/06/26 06:14:25;;;;;;;14.43;6.60;;;27.50;1.40;;;;;;5006499;28;46584;-68
2023/06/26 06:16:50;;;;;;;10.07;6.90;;;27.30;1.50;;;;;;5000483;28;46445;-68
2023/06/26 06:19:16;;;;;;;14.07;6.40;;;27.10;1.50;;;;;;4995796;28;46574;-67
2023/06/26 06:21:42;;;;;;;7.83;6.23;;;27.10;1.70;;;;;;4993955;28;46339;-68
2023/06/26 06:24:09;;;;;;;10.40;7.20;;;27.00;1.60;;;;;;4992764;28;46553;-68
2023/06/26 06:26:35;;;;;;;12.17;6.57;;;27.10;1.60;;;;;;4988656;28;47115;-69
2023/06/26 06:29:01;;;;;;;12.40;7.03;;;27.10;1.50;;;;;;4996214;28;46430;-67
2023/06/26 06:31:28;;;;;;;10.47;6.20;;;27.20;1.40;;;;;;4991220;28;46430;-66
2023/06/26 06:33:56;;;;;;;10.40;6.50;;;27.10;1.30;;;;;;4987239;28;46520;-68
2023/06/26 06:36:22;;;;;;;13.50;7.00;;;27.00;1.40;;;;;;4995107;28;46424;-67
2023/06/26 06:38:48;;;;;;;10.00;6.63;;;26.90;1.50;;;;;;4988104;28;46310;-68
2023/06/26 06:41:13;;;;;;;11.13;7.50;;;26.90;1.50;;;;;;4991817;28;46516;-68
2023/06/26 06:43:39;;;;;;;12.90;7.00;;;26.90;1.50;;;;;;4994957;28;46315;-70
2023/06/26 06:46:05;;;;;;;9.53;6.70;;;26.80;1.50;;;;;;4990006;28;46433;-69
2023/06/26 06:48:31;;;;;;;15.03;6.60;;;26.90;1.60;;;;;;4989595;28;46483;-68
2023/06/26 06:50:57;;;;;;;9.13;6.77;;;27.10;1.50;;;;;;4994462;28;45834;-69
2023/06/26 06:53:23;;;;;;;9.27;6.73;;;27.00;1.60;;;;;;4989347;28;46308;-69
2023/06/26 06:55:51;;;;;;;12.57;6.90;;;26.80;2.00;;;;;;4991361;28;47183;-69
2023/06/26 06:58:19;;;;;;;14.00;7.10;;;26.90;2.40;;;;;;4989914;28;46422;-68
2023/06/26 07:00:45;;;;;;;10.90;7.47;;;26.90;2.30;;;;;;4989049;28;46506;-69
2023/06/26 07:03:11;;;;;;;11.03;6.77;;;26.80;2.50;;;;;;4988703;28;46698;-69
2023/06/26 07:05:37;;;;;;;13.20;7.17;;;26.70;2.80;;;;;;4986043;28;46392;-69
2023/06/26 07:08:03;;;;;;;14.67;6.30;;;26.70;2.70;;;;;;4986012;28;46485;-70
2023/06/26 07:10:29;;;;;;;13.10;6.87;;;26.90;2.70;;;;;;4992737;28;46439;-69
2023/06/26 07:12:54;;;;;;;8.80;6.53;;;27.00;2.70;;;;;;4988695;28;46460;-69
2023/06/26 07:15:20;;;;;;;10.10;6.60;;;27.00;2.60;;;;;;4985904;28;46546;-68
2023/06/26 07:17:45;;;;;;;12.17;6.37;;;27.10;2.60;;;;;;4985723;28;46525;-69
2023/06/26 07:20:15;;;;;;;8.23;5.77;;;27.00;2.80;;;;;;4991483;28;46275;-70
2023/06/26 07:22:42;;;;;;;9.87;7.10;;;27.10;2.90;;;;;;4987324;28;46583;-69
2023/06/26 07:25:11;;;;;;;11.33;6.30;;;27.20;2.70;;;;;;4990504;28;46524;-69
2023/06/26 07:27:40;;;;;;;16.93;6.60;;;27.30;2.40;;;;;;4989527;28;46286;-69
2023/06/26 07:30:08;;;;;;;13.60;7.37;;;27.50;1.90;;;;;;4992341;28;46502;-69
2023/06/26 07:32:34;;;;;;;8.27;6.00;;;27.60;1.80;;;;;;4990966;28;46370;-67
2023/06/26 07:35:00;;;;;;;11.60;7.20;;;27.90;1.30;;;;;;4990686;28;46787;-69
2023/06/26 07:37:25;;;;;;;11.53;6.50;;;28.00;1.00;;;;;;4992948;28;46495;-68
2023/06/26 07:39:51;;;;;;;9.60;5.77;;;28.00;1.00;;;;;;4991472;28;46345;-69
2023/06/26 07:42:17;;;;;;;11.23;6.50;;;28.00;1.00;;;;;;4990079;28;46338;-68
2023/06/26 07:44:43;;;;;;;10.50;6.27;;;28.20;1.00;;;;;;4992648;28;47002;-68
2023/06/26 07:47:09;;;;;;;9.47;5.80;;;28.40;1.00;;;;;;4991283;28;46466;-68
2023/06/26 07:49:34;;;;;;;9.60;6.03;;;28.60;1.00;;;;;;4988716;28;46553;-68
2023/06/26 07:52:00;;;;;;;12.93;5.70;;;28.70;1.00;;;;;;4988500;28;46488;-68
2023/06/26 07:54:25;;;;;;;9.40;5.53;;;28.50;1.00;;;;;;4990255;28;46627;-68
2023/06/26 07:56:58;;;;;;;10.23;5.63;;;28.40;1.00;;;;;;4986574;28;46226;-65
2023/06/26 07:59:25;;;;;;;9.60;5.70;;;28.50;1.00;;;;;;4990097;28;46512;-67
2023/06/26 08:01:53;;;;;;;9.20;6.50;;;28.70;1.00;;;;;;4992036;28;46642;-68
2023/06/26 08:04:20;;;;;;;8.60;5.70;;;29.00;1.00;;;;;;4986983;28;47306;-66
2023/06/26 08:06:47;;;;;;;14.33;5.27;;;29.10;1.00;;;;;;4992190;28;46334;-67
2023/06/26 08:09:13;;;;;;;8.43;6.20;;;29.30;1.00;;;;;;4985393;28;46834;-67
2023/06/26 08:11:39;;;;;;;7.37;5.30;;;29.30;1.00;;;;;;4988824;28;46542;-68
2023/06/26 08:14:04;;;;;;;8.60;5.27;;;29.40;1.00;;;;;;4985512;28;46941;-68
2023/06/26 08:16:30;;;;;;;11.10;6.13;;;29.40;1.00;;;;;;4981749;28;46502;-68
2023/06/26 08:18:56;;;;;;;12.90;6.60;;;29.40;1.00;;;;;;4991771;23;46793;-68
2023/06/26 08:21:21;;;;;;;10.17;6.40;;;29.40;1.00;;;;;;4992021;28;46725;-68
2023/06/26 08:26:22;;;;;;;11.30;6.83;;;29.50;1.00;;;;;;5744126;22;47267;-81
2023/06/26 08:28:48;;;;;;;8.77;6.30;;;29.40;1.00;;;;;;4966514;28;46559;-78
2023/06/26 08:31:13;;;;;;;8.50;5.57;;;29.60;1.00;;;;;;4991328;28;46442;-79
2023/06/26 08:33:39;;;;;;;9.47;5.33;;;29.70;1.00;;;;;;5002540;28;46636;-81
2023/06/26 08:36:04;;;;;;;7.57;5.23;;;29.70;1.00;;;;;;4980759;28;46495;-79
2023/06/26 08:38:31;;;;;;;7.23;5.30;;;29.70;1.00;;;;;;4959123;28;46435;-76
2023/06/26 08:40:56;;;;;;;8.20;5.30;;;29.70;1.00;;;;;;4970749;28;46292;-77
2023/06/26 08:43:22;;;;;;;10.57;5.70;;;29.60;1.00;;;;;;4976258;28;47616;-79
2023/06/26 08:45:51;;;;;;;7.63;5.43;;;29.50;1.00;;;;;;4979968;28;46404;-79
2023/06/26 08:48:17;;;;;;;8.20;5.67;;;29.50;1.00;;;;;;4994040;28;46736;-80
2023/06/26 08:50:43;;;;;;;7.90;5.00;;;29.60;1.00;;;;;;4975420;28;46474;-83
2023/06/26 08:53:23;;;;;;;9.90;4.97;;;29.60;1.00;;;;;;4997894;28;47295;-84
2023/06/26 08:55:51;;;;;;;9.57;5.47;;;29.50;1.00;;;;;;5001274;28;45870;-82
2023/06/26 08:58:17;;;;;;;9.00;4.90;;;29.70;1.00;;;;;;4998685;28;46532;-82
2023/06/26 09:00:43;;;;;;;6.70;4.90;;;29.80;1.00;;;;;;4993286;28;46423;-80
2023/06/26 09:03:09;;;;;;;8.70;4.90;;;29.90;1.00;;;;;;4979801;28;48453;-84
2023/06/26 09:05:36;;;;;;;10.73;4.70;;;29.70;1.00;;;;;;4990732;28;48061;-82
2023/06/26 09:08:01;;;;;;;9.50;4.80;;;29.70;1.00;;;;;;4994981;28;47455;-79
2023/06/26 09:10:27;;;;;;;7.93;4.90;;;29.80;1.00;;;;;;4999789;28;46611;-79
2023/06/26 09:12:57;;;;;;;6.60;4.63;;;29.80;1.00;;;;;;4993763;28;46904;-80
2023/06/26 09:15:23;;;;;;;7.60;4.80;;;29.90;1.00;;;;;;4997308;28;46482;-79
2023/06/26 09:17:49;;;;;;;9.73;5.40;;;30.00;1.00;;;;;;4996809;28;46654;-83
2023/06/26 09:20:14;;;;;;;7.63;5.10;;;30.20;1.00;;;;;;4977240;28;46289;-81
2023/06/26 09:22:42;;;;;;;7.60;5.20;;;30.50;1.00;;;;;;4995070;28;46919;-80
2023/06/26 09:25:08;;;;;;;7.30;5.20;;;30.40;1.00;;;;;;4974829;28;46440;-80
2023/06/26 09:27:35;;;;;;;8.07;4.97;;;30.20;1.00;;;;;;5003781;28;46526;-83
2023/06/26 09:30:02;;;;;;;6.17;4.50;;;30.00;1.00;;;;;;5005261;28;46440;-84
2023/06/26 09:32:28;;;;;;;9.83;5.13;;;30.20;1.00;;;;;;5003178;28;46446;-81
2023/06/26 09:34:56;;;;;;;11.67;4.57;;;30.20;1.00;;;;;;5004379;28;46567;-79
2023/06/26 09:37:22;;;;;;;7.40;5.07;;;30.30;1.00;;;;;;4998807;28;46380;-81
2023/06/26 09:39:49;;;;;;;6.07;4.20;;;30.40;1.00;;;;;;5004424;28;46606;-81
2023/06/26 09:42:15;;;;;;;8.10;5.40;;;30.60;1.00;;;;;;5004483;28;46479;-83
2023/06/26 09:44:45;;;;;;;6.60;4.77;;;30.80;1.00;;;;;;5003185;28;46457;-82
2023/06/26 09:47:10;;;;;;;9.07;5.30;;;31.20;1.00;;;;;;5004364;28;46412;-81
2023/06/26 09:49:36;;;;;;;7.23;4.63;;;31.50;1.00;;;;;;5006093;28;46920;-80
2023/06/26 09:52:02;;;;;;;8.67;5.30;;;31.60;1.00;;;;;;5005118;28;46881;-83
2023/06/26 09:54:30;;;;;;;12.60;5.17;;;31.40;1.00;;;;;;5001228;28;46507;-80
2023/06/26 09:57:06;;;;;;;13.97;5.10;;;30.90;1.00;;;;;;4981968;28;46498;-85
2023/06/26 09:59:32;;;;;;;8.93;5.13;;;30.70;1.00;;;;;;5006891;28;46404;-82
2023/06/26 10:01:59;;;;;;;8.57;4.90;;;30.80;1.00;;;;;;5008220;28;46376;-83
2023/06/26 10:04:25;;;;;;;9.60;6.00;;;31.10;1.00;;;;;;4987167;28;46648;-83
2023/06/26 10:06:53;;;;;;;12.40;6.00;;;31.20;1.00;;;;;;5005294;28;46398;-83
2023/06/26 10:09:20;;;;;;;9.67;5.33;;;31.60;1.00;;;;;;5007806;28;46349;-80
2023/06/26 10:12:05;;;;;;;10.43;5.20;;;31.90;1.00;;;;;;5004043;28;46929;-80
2023/06/26 10:14:35;;;;;;;7.40;5.40;;;32.00;1.00;;;;;;5002170;28;46702;-83
2023/06/26 10:17:09;;;;;;;7.90;5.20;;;31.70;1.00;;;;;;5006018;28;46405;-82
2023/06/26 10:19:36;;;;;;;8.93;5.27;;;31.80;1.00;;;;;;5004194;28;46602;-83
2023/06/26 10:22:03;;;;;;;8.50;5.60;;;31.70;1.00;;;;;;4998372;28;46359;-82
2023/06/26 10:24:33;;;;;;;11.10;5.90;;;31.80;1.00;;;;;;5002215;28;46646;-80
2023/06/26 10:27:07;;;;;;;9.00;5.53;;;31.70;1.00;;;;;;4999300;28;46209;-79
2023/06/26 10:29:34;;;;;;;9.93;5.80;;;31.90;1.00;;;;;;5000760;28;46383;-82
2023/06/26 10:32:02;;;;;;;7.17;5.13;;;31.90;1.00;;;;;;4998456;28;47313;-79
2023/06/26 10:34:27;;;;;;;7.67;5.00;;;31.60;1.00;;;;;;5001210;28;46558;-83
2023/06/26 10:37:04;;;;;;;10.00;5.60;;;31.60;1.00;;;;;;4999131;28;46939;-81
2023/06/26 10:39:49;;;;;;;8.60;5.50;;;31.60;1.00;;;;;;4994858;28;46467;-82
2023/06/26 10:42:16;;;;;;;6.80;4.63;;;32.10;1.00;;;;;;5000002;28;47413;-81
2023/06/26 10:44:43;;;;;;;12.50;5.70;;;32.10;1.00;;;;;;4979271;28;46460;-82
2023/06/26 10:47:09;;;;;;;6.73;4.57;;;32.10;1.00;;;;;;4982856;28;46489;-80
2023/06/26 10:49:36;;;;;;;8.53;5.10;;;31.50;1.00;;;;;;5000379;28;46420;-81
2023/06/26 10:52:02;;;;;;;7.90;5.20;;;31.50;1.00;;;;;;5003541;28;45981;-82
2023/06/26 10:54:33;;;;;;;9.30;5.17;;;31.10;1.00;;;;;;4985692;28;46353;-81
2023/06/26 10:56:59;;;;;;;7.60;5.20;;;30.80;1.00;;;;;;4998004;28;46378;-83
2023/06/26 10:59:29;;;;;;;9.97;5.10;;;30.90;1.00;;;;;;5005748;28;46644;-83
2023/06/26 11:02:04;;;;;;;11.17;4.97;;;31.20;1.00;;;;;;5009796;28;46439;-82
2023/06/26 11:04:38;;;;;;;8.60;5.23;;;30.90;1.00;;;;;;4980082;28;46730;-82
2023/06/26 11:07:24;;;;;;;8.03;5.30;;;31.00;1.00;;;;;;5000537;28;46476;-85
2023/06/26 11:09:54;;;;;;;8.40;5.77;;;31.10;1.00;;;;;;5003736;28;46546;-83
2023/06/26 11:12:37;;;;;;;8.37;5.30;;;31.00;1.00;;;;;;5004081;28;47519;-79
2023/06/26 11:15:13;;;;;;;7.23;5.33;;;31.00;1.00;;;;;;5004254;28;46290;-82
2023/06/26 11:17:40;;;;;;;7.00;5.30;;;31.20;1.00;;;;;;5004231;28;45866;-81
2023/06/26 11:20:10;;;;;;;9.27;5.50;;;31.10;1.00;;;;;;5007752;28;46443;-84
2023/06/26 11:22:38;;;;;;;11.33;5.63;;;31.20;1.00;;;;;;5001392;28;46962;-80
2023/06/26 11:25:05;;;;;;;8.87;5.90;;;31.30;1.00;;;;;;5002143;28;46380;-82
2023/06/26 11:27:32;;;;;;;6.80;4.83;;;31.40;1.00;;;;;;5001398;28;46309;-80
2023/06/26 11:29:58;;;;;;;7.10;4.73;;;31.50;1.00;;;;;;4999459;28;46520;-79
2023/06/26 11:32:27;;;;;;;9.57;4.80;;;31.70;1.00;;;;;;5000360;28;47216;-81
2023/06/26 11:34:53;;;;;;;7.40;5.33;;;31.70;1.00;;;;;;4984299;28;46506;-80
2023/06/26 11:37:20;;;;;;;7.23;5.60;;;31.70;1.00;;;;;;5000179;28;46464;-83
2023/06/26 11:39:46;;;;;;;8.20;5.33;;;31.90;1.00;;;;;;5002351;28;46323;-83
2023/06/26 11:42:12;;;;;;;7.37;5.17;;;31.90;1.00;;;;;;4998380;28;46560;-83
2023/06/26 11:44:45;;;;;;;7.83;5.13;;;32.20;1.00;;;;;;5002488;28;46583;-81
2023/06/26 11:47:22;;;;;;;7.60;5.03;;;32.50;1.00;;;;;;4981801;28;46876;-80
2023/06/26 11:49:49;;;;;;;7.43;5.13;;;32.50;1.00;;;;;;5001222;28;46170;-83
2023/06/26 11:52:15;;;;;;;9.40;5.93;;;32.30;1.00;;;;;;4984327;28;47367;-81
2023/06/26 11:54:42;;;;;;;7.10;4.90;;;32.40;1.00;;;;;;5002445;28;46360;-84
2023/06/26 11:57:08;;;;;;;7.50;5.33;;;32.30;1.00;;;;;;4998788;28;46672;-81
2023/06/26 11:59:40;;;;;;;9.20;6.30;;;32.00;1.00;;;;;;5000651;28;46724;-83
2023/06/26 12:02:16;;;;;;;7.23;5.30;;;32.00;1.00;;;;;;5001267;28;46629;-82
2023/06/26 12:04:43;;;;;;;10.03;5.80;;;31.90;1.00;;;;;;5001845;28;46450;-82
2023/06/26 12:07:10;;;;;;;11.13;5.93;;;31.90;1.00;;;;;;4999268;28;46483;-80
2023/06/26 12:09:40;;;;;;;9.10;5.73;;;31.90;1.00;;;;;;5000074;28;46440;-81
2023/06/26 12:12:07;;;;;;;8.80;6.33;;;32.20;1.00;;;;;;5001007;28;47126;-81
2023/06/26 12:14:34;;;;;;;9.30;5.60;;;32.30;1.00;;;;;;4980774;28;46152;-81
2023/06/26 12:17:05;;;;;;;7.80;5.53;;;32.10;1.00;;;;;;4997806;28;47319;-83
2023/06/26 12:19:31;;;;;;;8.83;6.40;;;31.90;1.00;;;;;;5002393;28;46494;-83
2023/06/26 12:21:58;;;;;;;7.70;5.87;;;31.60;1.00;;;;;;5003819;28;46620;-83
2023/06/26 12:24:24;;;;;;;9.83;5.00;;;31.30;1.00;;;;;;4984226;28;46509;-82
2023/06/26 12:26:53;;;;;;;9.50;5.37;;;31.60;1.00;;;;;;4999644;28;46368;-82
2023/06/26 12:29:20;;;;;;;10.80;5.77;;;31.90;1.00;;;;;;5004266;28;46442;-82
2023/06/26 12:31:50;;;;;;;9.10;5.30;;;32.50;1.00;;;;;;4987434;28;48801;-84
2023/06/26 12:34:19;;;;;;;8.30;5.43;;;32.70;1.00;;;;;;5005223;28;46556;-83
2023/06/26 12:36:49;;;;;;;11.27;5.67;;;33.00;1.00;;;;;;4998565;28;46563;-82
2023/06/26 12:39:17;;;;;;;9.23;5.30;;;32.90;1.00;;;;;;5007273;28;45800;-83
2023/06/26 12:41:53;;;;;;;9.00;6.00;;;32.50;1.00;;;;;;5000013;28;46527;-83
2023/06/26 12:44:45;;;;;;;10.03;5.50;;;32.20;1.00;;;;;;4997169;28;46539;-80
2023/06/26 12:47:13;;;;;;;10.53;5.57;;;31.70;1.00;;;;;;4993853;28;46495;-81